createdAt,value
2022-12-08T00:01:24.125Z,91.00
2022-12-08T00:03:52.041Z,52.80
2022-12-08T00:06:49.499Z,63.42
2022-12-08T00:09:41.087Z,66.55
2022-12-08T00:12:12.817Z,77.55
2022-12-08T00:14:42.553Z,68.30
2022-12-08T00:17:11.564Z,61.65
2022-12-08T00:19:39.963Z,68.00
2022-12-08T00:22:09.903Z,62.42
2022-12-08T00:24:39.873Z,87.80
2022-12-08T00:27:09.253Z,64.35
2022-12-08T00:29:37.227Z,57.80
2022-12-08T00:32:05.688Z,80.80
2022-12-08T00:34:33.553Z,64.78
2022-12-08T00:37:00.802Z,45.35
2022-12-08T00:39:27.919Z,50.80
2022-12-08T00:42:13.048Z,53.15
2022-12-08T00:44:41.341Z,48.03
2022-12-08T00:47:08.428Z,74.85
2022-12-08T00:49:35.477Z,54.33
2022-12-08T00:52:02.584Z,62.55
2022-12-08T00:54:29.725Z,65.68
2022-12-08T00:56:56.862Z,51.58
2022-12-08T00:59:23.783Z,55.42
2022-12-08T01:01:51.164Z,54.08
2022-12-08T01:04:19.655Z,57.25
2022-12-08T01:06:47.984Z,56.35
2022-12-08T01:09:16.398Z,41.50
2022-12-08T01:11:44.788Z,51.83
2022-12-08T01:14:12.652Z,39.80
2022-12-08T01:16:41.817Z,46.47
2022-12-08T01:19:11.063Z,45.33
2022-12-08T01:21:38.239Z,40.50
2022-12-08T01:24:05.773Z,54.97
2022-12-08T01:26:32.977Z,47.60
2022-12-08T01:29:00.152Z,37.00
2022-12-08T01:31:27.495Z,60.28
2022-12-08T01:33:54.613Z,50.17
2022-12-08T01:36:27.717Z,52.42
2022-12-08T01:38:57.137Z,54.42
2022-12-08T01:41:27.262Z,41.75
2022-12-08T01:44:08.522Z,61.13
2022-12-08T01:46:38.874Z,54.50
2022-12-08T01:49:11.852Z,49.03
2022-12-08T01:51:44.104Z,48.47
2022-12-08T01:54:13.522Z,42.30
2022-12-08T01:56:50.823Z,53.35
2022-12-08T01:59:19.376Z,40.90
2022-12-08T02:01:51.469Z,32.50
2022-12-08T02:04:18.654Z,49.08
2022-12-08T02:06:47.766Z,43.22
2022-12-08T02:09:15.446Z,34.50
2022-12-08T02:11:42.433Z,45.38
2022-12-08T02:14:11.986Z,39.67
2022-12-08T02:16:43.456Z,52.65
2022-12-08T02:19:41.353Z,60.15
2022-12-08T02:22:36.716Z,40.20
2022-12-08T02:25:16.375Z,51.28
2022-12-08T02:28:03.718Z,53.58
2022-12-08T02:31:05.856Z,51.85
2022-12-08T02:34:17.700Z,54.13
2022-12-08T02:36:50.357Z,56.65
2022-12-08T02:39:52.949Z,49.88
2022-12-08T02:42:38.366Z,37.75
2022-12-08T02:45:30.696Z,51.28
2022-12-08T02:47:59.282Z,46.90
2022-12-08T02:50:27.468Z,50.00
2022-12-08T02:52:54.879Z,47.50
2022-12-08T02:55:24.757Z,58.10
2022-12-08T02:58:03.977Z,53.60
2022-12-08T03:00:41.528Z,57.65
2022-12-08T03:03:23.817Z,65.30
2022-12-08T03:06:15.713Z,59.38
2022-12-08T03:08:50.082Z,49.70
2022-12-08T03:11:29.218Z,52.58
2022-12-08T03:14:00.610Z,40.92
2022-12-08T03:16:30.114Z,56.03
2022-12-08T03:19:13.841Z,51.20
2022-12-08T03:24:10.990Z,53.60
2022-12-08T03:26:53.396Z,66.88
2022-12-08T03:29:21.024Z,52.70
2022-12-08T03:31:56.134Z,59.33
2022-12-08T03:34:26.450Z,54.83
2022-12-08T03:36:53.953Z,52.30
2022-12-08T03:39:21.106Z,57.58
2022-12-08T03:41:48.135Z,44.97
2022-12-08T03:44:15.301Z,41.40
2022-12-08T03:46:42.264Z,56.10
2022-12-08T03:49:09.467Z,53.72
2022-12-08T03:51:36.664Z,51.92
2022-12-08T03:54:04.699Z,50.33
2022-12-08T03:56:35.216Z,50.30
2022-12-08T03:59:03.517Z,62.80
2022-12-08T04:01:30.848Z,62.28
2022-12-08T04:03:58.039Z,50.20
2022-12-08T04:06:26.546Z,61.08
2022-12-08T04:08:53.682Z,62.50
2022-12-08T04:11:21.548Z,67.47
2022-12-08T04:13:48.932Z,61.45
2022-12-08T04:16:25.094Z,67.13
2022-12-08T04:18:52.593Z,63.90
2022-12-08T04:21:20.096Z,77.75
2022-12-08T04:23:47.645Z,72.18
2022-12-08T04:26:15.289Z,59.58
2022-12-08T04:28:42.365Z,58.22
2022-12-08T04:31:09.351Z,54.97
2022-12-08T04:33:36.643Z,64.70
2022-12-08T04:36:05.084Z,67.35
2022-12-08T04:38:32.530Z,66.60
2022-12-08T04:41:00.944Z,76.20
2022-12-08T04:43:28.373Z,78.25
2022-12-08T04:45:55.462Z,63.47
2022-12-08T04:48:22.476Z,70.63
2022-12-08T04:50:49.660Z,60.63
2022-12-08T04:53:16.670Z,65.10
2022-12-08T04:55:45.247Z,54.67
2022-12-08T04:58:14.340Z,78.07
2022-12-08T05:00:41.903Z,72.68
2022-12-08T05:03:09.504Z,79.53
2022-12-08T05:05:36.737Z,52.58
2022-12-08T05:08:04.404Z,59.13
2022-12-08T05:10:32.381Z,62.97
2022-12-08T05:13:00.335Z,62.25
2022-12-08T05:15:27.982Z,64.80
2022-12-08T05:17:55.541Z,73.65
2022-12-08T05:20:22.788Z,80.30
2022-12-08T05:22:49.854Z,68.00
2022-12-08T05:25:17.108Z,83.15
2022-12-08T05:27:44.303Z,69.25
2022-12-08T05:30:11.750Z,69.20
2022-12-08T05:32:38.925Z,75.70
2022-12-08T05:35:06.543Z,67.60
2022-12-08T05:37:33.685Z,70.90
2022-12-08T05:40:01.017Z,55.72
2022-12-08T05:42:28.038Z,57.60
2022-12-08T05:44:55.026Z,68.57
2022-12-08T05:47:22.001Z,76.47
2022-12-08T05:49:49.117Z,78.15
2022-12-08T05:52:17.187Z,62.65
2022-12-08T05:54:44.598Z,63.38
2022-12-08T05:57:11.773Z,69.88
2022-12-08T05:59:39.743Z,68.75
2022-12-08T06:02:06.829Z,74.30
2022-12-08T06:04:33.917Z,59.65
2022-12-08T06:07:00.960Z,71.10
2022-12-08T06:09:27.973Z,92.10
2022-12-08T06:11:55.093Z,82.32
2022-12-08T06:14:22.155Z,88.53
2022-12-08T06:16:49.203Z,92.38
2022-12-08T06:19:16.546Z,94.50
2022-12-08T06:21:43.638Z,91.82
2022-12-08T06:24:10.789Z,75.72
2022-12-08T06:26:40.359Z,70.80
2022-12-08T06:29:07.897Z,85.97
2022-12-08T06:31:34.988Z,77.20
2022-12-08T06:34:02.109Z,68.30
2022-12-08T06:36:30.139Z,65.18
2022-12-08T06:38:57.497Z,63.55
2022-12-08T06:41:25.997Z,59.20
2022-12-08T06:43:56.253Z,77.63
2022-12-08T06:46:23.371Z,58.42
2022-12-08T06:48:50.854Z,98.05
2022-12-08T06:51:20.775Z,104.35
2022-12-08T06:53:48.560Z,101.20
2022-12-08T06:56:17.068Z,105.35
2022-12-08T06:58:48.935Z,100.80
2022-12-08T07:01:19.767Z,97.68
2022-12-08T07:03:47.893Z,97.72
2022-12-08T07:06:25.200Z,103.80
2022-12-08T07:08:52.633Z,86.90
2022-12-08T07:11:21.904Z,108.80
2022-12-08T07:13:50.701Z,92.93
2022-12-08T07:16:17.892Z,81.10
2022-12-08T07:18:44.891Z,105.03
2022-12-08T07:21:15.101Z,122.35
2022-12-08T07:23:43.320Z,88.88
2022-12-08T07:26:12.512Z,84.78
2022-12-08T07:28:41.322Z,102.25
2022-12-08T07:31:16.379Z,74.35
2022-12-08T07:33:43.550Z,84.50
2022-12-08T07:36:10.687Z,82.10
2022-12-08T07:38:37.733Z,81.07
2022-12-08T07:41:04.916Z,63.08
2022-12-08T07:43:32.203Z,60.03
2022-12-08T07:46:00.150Z,72.13
2022-12-08T07:48:27.138Z,96.18
2022-12-08T07:51:04.289Z,103.95
2022-12-08T07:53:32.265Z,67.28
2022-12-08T07:55:59.552Z,88.40
2022-12-08T07:58:27.694Z,77.70
2022-12-08T08:00:54.942Z,97.82
2022-12-08T08:03:22.532Z,95.85
2022-12-08T08:05:50.216Z,99.97
2022-12-08T08:08:18.275Z,94.38
2022-12-08T08:10:47.066Z,72.95
2022-12-08T08:13:14.253Z,73.10
2022-12-08T08:15:41.428Z,85.95
2022-12-08T08:18:08.551Z,87.32
2022-12-08T08:20:35.639Z,89.20
2022-12-08T08:23:02.658Z,71.78
2022-12-08T08:25:29.696Z,79.63
2022-12-08T08:27:56.819Z,76.22
2022-12-08T08:30:24.622Z,75.90
2022-12-08T08:32:52.450Z,84.65
2022-12-08T08:35:19.570Z,81.25
2022-12-08T08:37:49.419Z,108.90
2022-12-08T08:40:18.468Z,81.18
2022-12-08T08:42:45.508Z,90.88
2022-12-08T08:45:12.615Z,88.13
2022-12-08T08:47:39.551Z,76.05
2022-12-08T08:50:07.864Z,69.30
2022-12-08T08:52:35.149Z,78.80
2022-12-08T08:55:04.165Z,66.07
2022-12-08T08:57:31.872Z,69.78
2022-12-08T08:59:59.999Z,74.10
2022-12-08T09:02:27.012Z,85.90
2022-12-08T09:04:54.250Z,73.20
2022-12-08T09:07:21.373Z,84.63
2022-12-08T09:09:49.116Z,77.13
2022-12-08T09:12:16.205Z,90.70
2022-12-08T09:14:43.345Z,98.90
2022-12-08T09:17:10.451Z,83.40
2022-12-08T09:19:37.927Z,87.85
2022-12-08T09:22:06.046Z,82.63
2022-12-08T09:24:33.306Z,86.78
2022-12-08T09:27:00.367Z,93.55
2022-12-08T09:29:32.539Z,91.28
2022-12-08T09:32:03.282Z,98.38
2022-12-08T09:34:33.565Z,95.72
2022-12-08T09:37:00.598Z,109.60
2022-12-08T09:39:27.749Z,117.43
2022-12-08T09:42:04.192Z,98.65
2022-12-08T09:44:55.523Z,88.45
2022-12-08T09:47:32.252Z,98.72
2022-12-08T09:50:15.669Z,101.32
2022-12-08T09:52:56.796Z,92.63
2022-12-08T09:55:45.996Z,90.28
2022-12-08T09:58:21.743Z,86.28
2022-12-08T10:00:48.931Z,87.97
2022-12-08T10:03:17.053Z,91.30
2022-12-08T10:05:52.205Z,85.07
2022-12-08T10:08:29.560Z,81.60
2022-12-08T10:11:05.525Z,89.65
2022-12-08T10:13:58.166Z,74.88
2022-12-08T10:16:33.957Z,74.13
2022-12-08T10:19:18.896Z,58.28
2022-12-08T10:24:37.531Z,44.70
2022-12-08T10:27:11.853Z,44.72
2022-12-08T10:29:40.603Z,48.28
2022-12-08T10:32:19.260Z,64.85
2022-12-08T10:35:07.896Z,52.95
2022-12-08T10:37:35.160Z,54.67
2022-12-08T10:40:17.505Z,62.75
2022-12-08T10:42:55.483Z,55.13
2022-12-08T10:45:27.793Z,62.08
2022-12-08T10:48:00.268Z,62.50
2022-12-08T10:50:42.852Z,69.40
2022-12-08T10:53:34.101Z,58.73
2022-12-08T10:56:04.355Z,71.97
2022-12-08T10:58:36.479Z,55.67
2022-12-08T11:01:14.060Z,48.88
2022-12-08T11:03:51.357Z,55.15
2022-12-08T11:06:20.713Z,51.90
2022-12-08T11:08:59.412Z,66.47
2022-12-08T11:11:50.852Z,67.80
2022-12-08T11:14:30.237Z,49.92
2022-12-08T11:17:07.597Z,48.08
2022-12-08T11:19:40.077Z,58.58
2022-12-08T11:22:45.783Z,57.20
2022-12-08T11:25:12.791Z,47.17
2022-12-08T11:27:43.687Z,54.17
2022-12-08T11:30:25.623Z,60.58
2022-12-08T11:32:56.805Z,58.20
2022-12-08T11:35:40.728Z,48.80
2022-12-08T11:38:27.684Z,66.00
2022-12-08T11:41:00.497Z,52.92
2022-12-08T11:44:13.747Z,63.30
2022-12-08T11:46:49.038Z,53.67
2022-12-08T11:49:16.101Z,52.67
2022-12-08T11:51:48.842Z,69.80
2022-12-08T11:54:33.014Z,58.28
2022-12-08T11:57:02.775Z,46.10
2022-12-08T11:59:33.298Z,48.95
2022-12-08T12:02:03.074Z,41.53
2022-12-08T12:04:36.148Z,48.58
2022-12-08T12:07:12.713Z,57.63
2022-12-08T12:10:07.277Z,50.45
2022-12-08T12:12:44.400Z,56.83
2022-12-08T12:15:52.676Z,43.13
2022-12-08T12:18:46.701Z,44.90
2022-12-08T12:21:19.667Z,41.15
2022-12-08T12:23:55.743Z,43.10
2022-12-08T12:26:29.810Z,40.15
2022-12-08T12:29:05.800Z,43.25
2022-12-08T12:31:37.103Z,48.17
2022-12-08T12:34:22.466Z,43.05
2022-12-08T12:37:12.677Z,46.78
2022-12-08T12:40:06.102Z,44.30
2022-12-08T12:45:18.435Z,36.38
2022-12-08T12:48:13.259Z,40.42
2022-12-08T12:50:43.659Z,48.25
2022-12-08T12:53:16.941Z,33.88
2022-12-08T12:56:01.628Z,32.05
2022-12-08T12:58:28.662Z,28.17
2022-12-08T13:01:11.237Z,30.98
2022-12-08T13:03:39.333Z,26.60
2022-12-08T13:06:10.022Z,20.00
2022-12-08T13:08:51.318Z,27.55
2022-12-08T13:11:18.553Z,24.27
2022-12-08T13:14:05.015Z,21.90
2022-12-08T13:16:35.726Z,29.05
2022-12-08T13:19:11.948Z,19.63
2022-12-08T13:21:40.032Z,28.08
2022-12-08T13:24:28.363Z,20.30
2022-12-08T13:27:04.585Z,30.50
2022-12-08T13:29:35.893Z,20.05
2022-12-08T13:32:04.833Z,30.50
2022-12-08T13:34:52.024Z,29.83
2022-12-08T13:37:27.035Z,24.60
2022-12-08T13:40:06.808Z,20.77
2022-12-08T13:42:50.755Z,25.45
2022-12-08T13:45:52.963Z,29.23
2022-12-08T13:49:09.672Z,27.08
2022-12-08T13:53:22.475Z,30.73
2022-12-08T13:55:58.710Z,17.40
2022-12-08T13:57:36.315Z,22.05
2022-12-08T14:00:17.141Z,21.02
2022-12-08T14:02:48.571Z,24.60
2022-12-08T14:05:20.378Z,23.02
2022-12-08T14:07:54.376Z,21.95
2022-12-08T14:10:28.479Z,19.40
2022-12-08T14:13:00.091Z,19.30
2022-12-08T14:15:31.271Z,49.17
2022-12-08T14:18:01.545Z,28.60
2022-12-08T14:20:51.989Z,45.38
2022-12-08T14:23:21.391Z,34.47
2022-12-08T14:25:48.812Z,27.77
2022-12-08T14:28:17.680Z,43.17
2022-12-08T14:30:44.973Z,51.30
2022-12-08T14:33:15.634Z,33.10
2022-12-08T14:35:42.768Z,38.72
2022-12-08T14:38:15.426Z,49.50
2022-12-08T14:40:48.530Z,46.65
2022-12-08T14:43:18.997Z,35.47
2022-12-08T14:45:46.062Z,31.63
2022-12-08T14:48:28.173Z,36.47
2022-12-08T14:51:04.642Z,39.17
2022-12-08T14:53:53.694Z,38.30
2022-12-08T14:56:33.671Z,31.67
2022-12-08T14:59:12.287Z,44.85
2022-12-08T15:01:40.599Z,39.88
2022-12-08T15:04:19.156Z,41.15
2022-12-08T15:07:07.159Z,53.28
2022-12-08T15:09:41.150Z,40.17
2022-12-08T15:12:13.824Z,43.90
2022-12-08T15:14:59.336Z,41.03
2022-12-08T15:17:31.799Z,35.53
2022-12-08T15:20:01.106Z,42.37
2022-12-08T15:22:30.889Z,26.50
2022-12-08T15:24:58.646Z,61.42
2022-12-08T15:27:26.414Z,37.50
2022-12-08T15:29:53.908Z,36.70
2022-12-08T15:32:23.524Z,43.08
2022-12-08T15:34:50.782Z,50.83
2022-12-08T15:37:26.658Z,40.17
2022-12-08T15:39:54.081Z,47.00
2022-12-08T15:42:21.109Z,41.67
2022-12-08T15:44:48.330Z,38.35
2022-12-08T15:47:19.337Z,51.92
2022-12-08T15:49:47.621Z,39.97
2022-12-08T15:52:16.992Z,39.60
2022-12-08T15:54:44.257Z,45.28
2022-12-08T15:58:24.878Z,47.20
2022-12-08T16:00:51.149Z,41.05
2022-12-08T16:04:02.737Z,44.00
2022-12-08T16:07:26.844Z,38.10
2022-12-08T16:09:13.168Z,48.17
2022-12-08T16:12:08.801Z,43.97
2022-12-08T16:17:25.849Z,46.00
2022-12-08T16:19:53.100Z,49.10
2022-12-08T16:25:20.213Z,69.35
2022-12-08T16:28:01.407Z,45.10
2022-12-08T16:30:30.566Z,40.97
2022-12-08T16:32:57.620Z,55.97
2022-12-08T16:35:24.722Z,41.10
2022-12-08T16:37:51.729Z,52.78
2022-12-08T16:40:19.011Z,43.25
2022-12-08T16:42:47.905Z,43.78
2022-12-08T16:45:17.915Z,54.15
2022-12-08T16:47:47.712Z,48.80
2022-12-08T16:50:21.396Z,42.83
2022-12-08T16:52:49.658Z,43.10
2022-12-08T16:55:19.432Z,37.05
2022-12-08T16:57:47.633Z,41.72
2022-12-08T17:00:17.985Z,39.00
2022-12-08T17:02:45.335Z,40.70
2022-12-08T17:05:15.180Z,31.10
2022-12-08T17:07:44.337Z,33.63
2022-12-08T17:10:16.013Z,36.10
2022-12-08T17:12:44.152Z,46.15
2022-12-08T17:15:15.423Z,33.22
2022-12-08T17:17:42.838Z,40.28
2022-12-08T17:20:14.066Z,49.92
2022-12-08T17:22:41.603Z,52.08
2022-12-08T17:25:09.292Z,43.17
2022-12-08T17:27:37.358Z,56.80
2022-12-08T17:30:06.370Z,37.95
2022-12-08T17:32:33.728Z,42.90
2022-12-08T17:35:00.865Z,48.75
2022-12-08T17:37:27.844Z,57.45
2022-12-08T17:39:54.925Z,55.65
2022-12-08T17:42:26.069Z,52.45
2022-12-08T17:44:54.071Z,57.72
2022-12-08T17:47:21.247Z,70.40
2022-12-08T17:49:48.946Z,69.95
2022-12-08T17:52:16.104Z,55.35
2022-12-08T17:54:43.565Z,57.63
2022-12-08T17:57:11.024Z,63.35
2022-12-08T17:59:38.151Z,54.53
2022-12-08T18:02:05.595Z,52.72
2022-12-08T18:04:32.798Z,43.05
2022-12-08T18:07:01.611Z,56.63
2022-12-08T18:09:31.017Z,54.75
2022-12-08T18:11:58.585Z,60.08
2022-12-08T18:14:25.767Z,52.28
2022-12-08T18:16:52.906Z,54.88
2022-12-08T18:19:20.030Z,25.58
2022-12-08T18:21:47.228Z,29.25
2022-12-08T18:24:22.303Z,34.88
2022-12-08T18:26:52.481Z,26.63
2022-12-08T18:29:21.797Z,20.25
2022-12-08T18:31:49.345Z,19.80
2022-12-08T18:34:16.592Z,23.55
2022-12-08T18:36:43.585Z,20.15
2022-12-08T18:39:29.613Z,24.50
2022-12-08T18:41:57.742Z,18.23
2022-12-08T18:44:25.454Z,25.27
2022-12-08T18:46:52.403Z,19.80
2022-12-08T18:49:20.160Z,22.90
2022-12-08T18:51:47.694Z,25.15
2022-12-08T18:54:14.916Z,27.63
2022-12-08T18:56:41.884Z,18.35
2022-12-08T18:59:12.012Z,29.23
2022-12-08T19:01:40.098Z,31.15
2022-12-08T19:04:27.760Z,21.13
2022-12-08T19:06:56.392Z,25.35
2022-12-08T19:09:24.647Z,21.33
2022-12-08T19:11:51.913Z,19.15
2022-12-08T19:14:22.714Z,24.60
2022-12-08T19:16:54.660Z,19.65
2022-12-08T19:19:21.788Z,20.35
2022-12-08T19:21:49.063Z,19.88
2022-12-08T19:24:16.461Z,25.75
2022-12-08T19:26:43.912Z,32.38
2022-12-08T19:29:12.098Z,23.55
2022-12-08T19:31:39.607Z,20.88
2022-12-08T19:34:07.073Z,24.77
2022-12-08T19:36:35.727Z,30.70
2022-12-08T19:39:23.035Z,25.40
2022-12-08T19:42:09.461Z,24.48
2022-12-08T19:50:38.554Z,23.85
2022-12-08T19:53:13.268Z,24.77
2022-12-08T19:55:42.230Z,22.17
2022-12-08T19:58:10.233Z,19.92
2022-12-08T20:00:40.090Z,25.05
2022-12-08T20:03:07.268Z,22.80
2022-12-08T20:05:36.836Z,21.25
2022-12-08T20:08:04.046Z,25.52
2022-12-08T20:10:36.074Z,26.05
2022-12-08T20:13:22.309Z,24.20
2022-12-08T20:15:49.641Z,19.17
2022-12-08T20:18:17.906Z,21.30
2022-12-08T20:20:46.335Z,18.95
2022-12-08T20:23:14.517Z,18.52
2022-12-08T20:25:43.077Z,19.00
2022-12-08T20:28:10.636Z,21.42
2022-12-08T20:30:42.660Z,15.05
2022-12-08T20:33:12.882Z,16.58
2022-12-08T20:35:40.405Z,16.98
2022-12-08T20:38:07.584Z,28.92
2022-12-08T20:40:34.918Z,24.35
2022-12-08T20:43:02.111Z,21.20
2022-12-08T20:45:29.318Z,23.95
2022-12-08T20:47:56.710Z,18.70
2022-12-08T20:50:24.467Z,26.63
2022-12-08T20:52:52.614Z,19.48
2022-12-08T20:55:20.052Z,16.08
2022-12-08T20:57:47.154Z,18.80
2022-12-08T21:00:17.724Z,19.60
2022-12-08T21:02:49.753Z,19.95
2022-12-08T21:05:17.379Z,23.45
2022-12-08T21:07:44.653Z,19.17
2022-12-08T21:10:12.147Z,16.55
2022-12-08T21:12:40.258Z,20.50
2022-12-08T21:15:08.198Z,16.45
2022-12-08T21:17:37.171Z,22.42
2022-12-08T21:20:05.134Z,20.50
2022-12-08T21:22:32.801Z,16.88
2022-12-08T21:24:59.959Z,19.23
2022-12-08T21:27:27.541Z,16.60
2022-12-08T21:29:54.698Z,17.73
2022-12-08T21:32:26.997Z,20.38
2022-12-08T21:34:57.692Z,18.52
2022-12-08T21:37:25.229Z,14.00
2022-12-08T21:39:52.568Z,15.63
2022-12-08T21:42:38.460Z,17.45
2022-12-08T21:45:06.459Z,15.27
2022-12-08T21:47:34.313Z,17.10
2022-12-08T21:50:01.874Z,14.93
2022-12-08T21:52:29.112Z,20.92
2022-12-08T21:54:56.158Z,15.68
2022-12-08T21:57:23.372Z,13.95
2022-12-08T21:59:51.223Z,12.25
2022-12-08T22:02:22.383Z,14.77
2022-12-08T22:04:52.889Z,14.13
2022-12-08T22:07:21.642Z,11.73
2022-12-08T22:09:49.250Z,14.63
2022-12-08T22:12:16.993Z,10.93
2022-12-08T22:14:44.177Z,11.90
2022-12-08T22:17:11.368Z,18.00
2022-12-08T22:19:38.859Z,12.85
2022-12-08T22:22:05.958Z,17.27
2022-12-08T22:24:33.234Z,14.75
2022-12-08T22:27:00.413Z,15.07
2022-12-08T22:29:28.533Z,11.10
2022-12-08T22:31:56.064Z,9.52
2022-12-08T22:34:23.418Z,9.07
2022-12-08T22:36:50.853Z,13.27
2022-12-08T22:39:18.419Z,16.65
2022-12-08T22:41:45.858Z,11.68
2022-12-08T22:44:16.414Z,14.45
2022-12-08T22:46:43.672Z,12.65
2022-12-08T22:49:10.860Z,12.00
2022-12-08T22:51:39.477Z,9.88
2022-12-08T22:54:06.757Z,13.18
2022-12-08T22:56:33.695Z,12.15
2022-12-08T22:59:00.984Z,19.27
2022-12-08T23:01:31.259Z,10.73
2022-12-08T23:03:59.655Z,12.48
2022-12-08T23:06:28.028Z,14.00
2022-12-08T23:08:56.031Z,9.75
2022-12-08T23:11:25.769Z,14.45
2022-12-08T23:13:53.264Z,13.70
2022-12-08T23:16:23.509Z,11.80
2022-12-08T23:18:51.584Z,17.60
2022-12-08T23:21:20.375Z,15.13
2022-12-08T23:23:48.167Z,12.35
2022-12-08T23:26:19.897Z,12.18
2022-12-08T23:28:47.378Z,21.70
2022-12-08T23:31:15.354Z,17.58
2022-12-08T23:33:42.710Z,24.50
2022-12-08T23:36:11.468Z,17.38
2022-12-08T23:38:38.578Z,18.15
2022-12-08T23:41:08.177Z,16.95
2022-12-08T23:43:35.624Z,27.45
2022-12-08T23:46:03.578Z,16.88
2022-12-08T23:48:35.022Z,18.88
2022-12-08T23:51:02.308Z,16.60
2022-12-08T23:53:30.712Z,15.30
2022-12-08T23:56:02.292Z,20.52
2022-12-08T23:58:33.419Z,22.95
